sensor_id;sensor_type;location;lat;lon;timestamp;temperature;humidity
57218;DHT22;43078;52.972;6.482;2023-05-01T00:02:24;13.40;99.90
57218;DHT22;43078;52.972;6.482;2023-05-01T00:04:51;13.30;99.90
57218;DHT22;43078;52.972;6.482;2023-05-01T00:07:16;13.30;99.90
57218;DHT22;43078;52.972;6.482;2023-05-01T00:09:45;13.20;99.90
57218;DHT22;43078;52.972;6.482;2023-05-01T00:12:11;13.20;99.90
57218;DHT22;43078;52.972;6.482;2023-05-01T00:14:36;13.20;99.90
57218;DHT22;43078;52.972;6.482;2023-05-01T00:17:02;13.20;99.90
57218;DHT22;43078;52.972;6.482;2023-05-01T00:19:28;13.00;99.90
57218;DHT22;43078;52.972;6.482;2023-05-01T00:21:53;13.00;99.90
57218;DHT22;43078;52.972;6.482;2023-05-01T00:24:19;13.00;99.90
57218;DHT22;43078;52.972;6.482;2023-05-01T00:26:45;12.90;99.90
57218;DHT22;43078;52.972;6.482;2023-05-01T00:29:10;12.90;99.90
57218;DHT22;43078;52.972;6.482;2023-05-01T00:31:36;12.80;99.90
57218;DHT22;43078;52.972;6.482;2023-05-01T00:34:02;12.80;99.90
57218;DHT22;43078;52.972;6.482;2023-05-01T00:36:29;12.80;99.90
57218;DHT22;43078;52.972;6.482;2023-05-01T00:38:56;12.70;99.90
57218;DHT22;43078;52.972;6.482;2023-05-01T00:41:21;12.70;99.90
57218;DHT22;43078;52.972;6.482;2023-05-01T00:43:47;12.70;99.90
57218;DHT22;43078;52.972;6.482;2023-05-01T00:46:13;12.70;99.90
57218;DHT22;43078;52.972;6.482;2023-05-01T00:48:38;12.70;99.90
57218;DHT22;43078;52.972;6.482;2023-05-01T00:51:06;12.70;99.90
57218;DHT22;43078;52.972;6.482;2023-05-01T00:53:32;12.60;99.90
57218;DHT22;43078;52.972;6.482;2023-05-01T00:55:58;12.50;99.90
57218;DHT22;43078;52.972;6.482;2023-05-01T00:58:25;12.50;99.90
57218;DHT22;43078;52.972;6.482;2023-05-01T01:00:51;12.40;99.90
57218;DHT22;43078;52.972;6.482;2023-05-01T01:03:17;12.50;99.90
57218;DHT22;43078;52.972;6.482;2023-05-01T01:05:56;12.40;99.90
57218;DHT22;43078;52.972;6.482;2023-05-01T01:08:28;12.30;99.90
57218;DHT22;43078;52.972;6.482;2023-05-01T01:21:48;12.10;99.90
57218;DHT22;43078;52.972;6.482;2023-05-01T01:34:54;11.90;99.90
57218;DHT22;43078;52.972;6.482;2023-05-01T01:37:28;11.80;99.90
57218;DHT22;43078;52.972;6.482;2023-05-01T01:40:07;11.80;99.90
57218;DHT22;43078;52.972;6.482;2023-05-01T01:42:42;11.70;99.90
57218;DHT22;43078;52.972;6.482;2023-05-01T01:45:24;11.70;99.90
57218;DHT22;43078;52.972;6.482;2023-05-01T01:47:52;11.70;99.90
57218;DHT22;43078;52.972;6.482;2023-05-01T01:50:21;11.60;99.90
57218;DHT22;43078;52.972;6.482;2023-05-01T01:52:50;11.60;99.90
57218;DHT22;43078;52.972;6.482;2023-05-01T01:55:21;11.50;99.90
57218;DHT22;43078;52.972;6.482;2023-05-01T01:57:49;11.50;99.90
57218;DHT22;43078;52.972;6.482;2023-05-01T02:00:16;11.50;99.90
57218;DHT22;43078;52.972;6.482;2023-05-01T02:02:44;11.50;99.90
57218;DHT22;43078;52.972;6.482;2023-05-01T02:05:14;11.40;99.90
57218;DHT22;43078;52.972;6.482;2023-05-01T02:07:41;11.40;99.90
57218;DHT22;43078;52.972;6.482;2023-05-01T02:10:12;11.40;99.90
57218;DHT22;43078;52.972;6.482;2023-05-01T02:12:39;11.30;99.90
57218;DHT22;43078;52.972;6.482;2023-05-01T02:15:06;11.30;99.90
57218;DHT22;43078;52.972;6.482;2023-05-01T02:17:35;11.30;99.90
57218;DHT22;43078;52.972;6.482;2023-05-01T02:20:01;11.30;99.90
57218;DHT22;43078;52.972;6.482;2023-05-01T02:22:29;11.30;99.90
57218;DHT22;43078;52.972;6.482;2023-05-01T02:24:56;11.20;99.90
57218;DHT22;43078;52.972;6.482;2023-05-01T02:27:28;11.20;99.90
57218;DHT22;43078;52.972;6.482;2023-05-01T02:29:55;11.20;99.90
57218;DHT22;43078;52.972;6.482;2023-05-01T02:32:22;11.10;99.90
57218;DHT22;43078;52.972;6.482;2023-05-01T02:34:48;11.20;99.90
57218;DHT22;43078;52.972;6.482;2023-05-01T02:37:14;11.10;99.90
57218;DHT22;43078;52.972;6.482;2023-05-01T02:39:40;11.10;99.90
57218;DHT22;43078;52.972;6.482;2023-05-01T02:42:07;11.10;99.90
57218;DHT22;43078;52.972;6.482;2023-05-01T02:44:39;11.00;99.90
57218;DHT22;43078;52.972;6.482;2023-05-01T02:47:08;11.00;99.90
57218;DHT22;43078;52.972;6.482;2023-05-01T02:49:35;11.00;99.90
57218;DHT22;43078;52.972;6.482;2023-05-01T02:52:02;10.90;99.90
57218;DHT22;43078;52.972;6.482;2023-05-01T02:54:30;10.90;99.90
57218;DHT22;43078;52.972;6.482;2023-05-01T02:56:55;10.80;99.90
57218;DHT22;43078;52.972;6.482;2023-05-01T02:59:24;10.80;99.90
57218;DHT22;43078;52.972;6.482;2023-05-01T03:01:49;10.80;99.90
57218;DHT22;43078;52.972;6.482;2023-05-01T03:04:16;10.80;99.90
57218;DHT22;43078;52.972;6.482;2023-05-01T03:06:41;10.80;99.90
57218;DHT22;43078;52.972;6.482;2023-05-01T03:09:08;10.70;99.90
57218;DHT22;43078;52.972;6.482;2023-05-01T03:11:34;10.70;99.90
57218;DHT22;43078;52.972;6.482;2023-05-01T03:14:00;10.70;99.90
57218;DHT22;43078;52.972;6.482;2023-05-01T03:16:25;10.60;99.90
57218;DHT22;43078;52.972;6.482;2023-05-01T03:18:51;10.60;99.90
57218;DHT22;43078;52.972;6.482;2023-05-01T03:21:16;10.50;99.90
57218;DHT22;43078;52.972;6.482;2023-05-01T03:23:42;10.50;99.90
57218;DHT22;43078;52.972;6.482;2023-05-01T03:26:07;10.50;99.90
57218;DHT22;43078;52.972;6.482;2023-05-01T03:28:33;10.50;99.90
57218;DHT22;43078;52.972;6.482;2023-05-01T03:30:59;10.40;99.90
57218;DHT22;43078;52.972;6.482;2023-05-01T03:33:25;10.40;99.90
57218;DHT22;43078;52.972;6.482;2023-05-01T03:35:59;10.40;99.90
57218;DHT22;43078;52.972;6.482;2023-05-01T03:38:26;10.30;99.90
57218;DHT22;43078;52.972;6.482;2023-05-01T03:40:52;10.30;99.90
57218;DHT22;43078;52.972;6.482;2023-05-01T03:43:18;10.20;99.90
57218;DHT22;43078;52.972;6.482;2023-05-01T03:45:43;10.20;99.90
57218;DHT22;43078;52.972;6.482;2023-05-01T03:48:09;10.20;99.90
57218;DHT22;43078;52.972;6.482;2023-05-01T03:50:35;10.10;99.90
57218;DHT22;43078;52.972;6.482;2023-05-01T03:53:01;10.10;99.90
57218;DHT22;43078;52.972;6.482;2023-05-01T03:55:26;10.00;99.90
57218;DHT22;43078;52.972;6.482;2023-05-01T03:57:52;10.00;99.90
57218;DHT22;43078;52.972;6.482;2023-05-01T04:00:18;10.00;99.90
57218;DHT22;43078;52.972;6.482;2023-05-01T04:02:44;10.00;99.90
57218;DHT22;43078;52.972;6.482;2023-05-01T04:05:09;9.90;99.90
57218;DHT22;43078;52.972;6.482;2023-05-01T04:07:35;9.90;99.90
57218;DHT22;43078;52.972;6.482;2023-05-01T04:10:01;9.90;99.90
57218;DHT22;43078;52.972;6.482;2023-05-01T04:12:27;9.80;99.90
57218;DHT22;43078;52.972;6.482;2023-05-01T04:14:53;9.80;99.90
57218;DHT22;43078;52.972;6.482;2023-05-01T04:17:18;9.80;99.90
57218;DHT22;43078;52.972;6.482;2023-05-01T04:19:44;9.80;99.90
57218;DHT22;43078;52.972;6.482;2023-05-01T04:22:11;9.70;99.90
57218;DHT22;43078;52.972;6.482;2023-05-01T04:24:37;9.70;99.90
57218;DHT22;43078;52.972;6.482;2023-05-01T04:27:03;9.70;99.90
57218;DHT22;43078;52.972;6.482;2023-05-01T04:29:30;9.60;99.90
57218;DHT22;43078;52.972;6.482;2023-05-01T04:31:55;9.60;99.90
57218;DHT22;43078;52.972;6.482;2023-05-01T04:34:21;9.60;99.90
57218;DHT22;43078;52.972;6.482;2023-05-01T04:36:47;9.60;99.90
57218;DHT22;43078;52.972;6.482;2023-05-01T04:39:13;9.50;99.90
57218;DHT22;43078;52.972;6.482;2023-05-01T04:41:40;9.50;99.90
57218;DHT22;43078;52.972;6.482;2023-05-01T04:44:06;9.50;99.90
57218;DHT22;43078;52.972;6.482;2023-05-01T04:46:31;9.50;99.90
57218;DHT22;43078;52.972;6.482;2023-05-01T04:48:57;9.50;99.90
57218;DHT22;43078;52.972;6.482;2023-05-01T04:51:23;9.50;99.90
57218;DHT22;43078;52.972;6.482;2023-05-01T04:53:48;9.50;99.90
57218;DHT22;43078;52.972;6.482;2023-05-01T04:56:14;9.50;99.90
57218;DHT22;43078;52.972;6.482;2023-05-01T04:58:40;9.50;99.90
57218;DHT22;43078;52.972;6.482;2023-05-01T05:01:06;9.50;99.90
57218;DHT22;43078;52.972;6.482;2023-05-01T05:03:32;9.50;99.90
57218;DHT22;43078;52.972;6.482;2023-05-01T05:05:57;9.50;99.90
57218;DHT22;43078;52.972;6.482;2023-05-01T05:08:23;9.50;99.90
57218;DHT22;43078;52.972;6.482;2023-05-01T05:10:48;9.50;99.90
57218;DHT22;43078;52.972;6.482;2023-05-01T05:13:14;9.50;99.90
57218;DHT22;43078;52.972;6.482;2023-05-01T05:15:40;9.50;99.90
57218;DHT22;43078;52.972;6.482;2023-05-01T05:18:05;9.50;99.90
57218;DHT22;43078;52.972;6.482;2023-05-01T05:20:31;9.50;99.90
57218;DHT22;43078;52.972;6.482;2023-05-01T05:22:56;9.50;99.90
57218;DHT22;43078;52.972;6.482;2023-05-01T05:25:23;9.40;99.90
57218;DHT22;43078;52.972;6.482;2023-05-01T05:27:49;9.40;99.90
57218;DHT22;43078;52.972;6.482;2023-05-01T05:30:15;9.50;99.90
57218;DHT22;43078;52.972;6.482;2023-05-01T05:32:40;9.40;99.90
57218;DHT22;43078;52.972;6.482;2023-05-01T05:35:06;9.40;99.90
57218;DHT22;43078;52.972;6.482;2023-05-01T05:37:32;9.40;99.90
57218;DHT22;43078;52.972;6.482;2023-05-01T05:39:57;9.40;99.90
57218;DHT22;43078;52.972;6.482;2023-05-01T05:42:23;9.40;99.90
57218;DHT22;43078;52.972;6.482;2023-05-01T05:44:49;9.40;99.90
57218;DHT22;43078;52.972;6.482;2023-05-01T05:47:14;9.40;99.90
57218;DHT22;43078;52.972;6.482;2023-05-01T05:49:40;9.40;99.90
57218;DHT22;43078;52.972;6.482;2023-05-01T05:52:06;9.40;99.90
57218;DHT22;43078;52.972;6.482;2023-05-01T05:54:31;9.40;99.90
57218;DHT22;43078;52.972;6.482;2023-05-01T05:56:57;9.50;99.90
57218;DHT22;43078;52.972;6.482;2023-05-01T05:59:22;9.50;99.90
57218;DHT22;43078;52.972;6.482;2023-05-01T06:01:48;9.50;99.90
57218;DHT22;43078;52.972;6.482;2023-05-01T06:04:13;9.50;99.90
57218;DHT22;43078;52.972;6.482;2023-05-01T06:06:39;9.50;99.90
57218;DHT22;43078;52.972;6.482;2023-05-01T06:09:05;9.50;99.90
57218;DHT22;43078;52.972;6.482;2023-05-01T06:11:33;9.50;99.90
57218;DHT22;43078;52.972;6.482;2023-05-01T06:13:58;9.50;99.90
57218;DHT22;43078;52.972;6.482;2023-05-01T06:16:25;9.60;99.90
57218;DHT22;43078;52.972;6.482;2023-05-01T06:18:51;9.60;99.90
57218;DHT22;43078;52.972;6.482;2023-05-01T06:21:17;9.60;99.90
57218;DHT22;43078;52.972;6.482;2023-05-01T06:23:42;9.60;99.90
57218;DHT22;43078;52.972;6.482;2023-05-01T06:26:08;9.70;99.90
57218;DHT22;43078;52.972;6.482;2023-05-01T06:28:34;9.70;99.90
57218;DHT22;43078;52.972;6.482;2023-05-01T06:31:00;9.70;99.90
57218;DHT22;43078;52.972;6.482;2023-05-01T06:33:25;9.70;99.90
57218;DHT22;43078;52.972;6.482;2023-05-01T06:35:51;9.80;99.90
57218;DHT22;43078;52.972;6.482;2023-05-01T06:38:16;9.80;99.90
57218;DHT22;43078;52.972;6.482;2023-05-01T06:40:42;9.90;99.90
57218;DHT22;43078;52.972;6.482;2023-05-01T06:43:11;9.90;99.90
57218;DHT22;43078;52.972;6.482;2023-05-01T06:45:36;10.00;99.90
57218;DHT22;43078;52.972;6.482;2023-05-01T06:48:04;10.00;99.90
57218;DHT22;43078;52.972;6.482;2023-05-01T06:50:30;10.10;99.90
57218;DHT22;43078;52.972;6.482;2023-05-01T06:52:55;10.10;99.90
57218;DHT22;43078;52.972;6.482;2023-05-01T06:55:23;10.10;99.90
57218;DHT22;43078;52.972;6.482;2023-05-01T06:57:48;10.20;99.90
57218;DHT22;43078;52.972;6.482;2023-05-01T07:00:14;10.20;99.90
57218;DHT22;43078;52.972;6.482;2023-05-01T07:02:41;10.30;99.90
57218;DHT22;43078;52.972;6.482;2023-05-01T07:05:06;10.30;99.90
57218;DHT22;43078;52.972;6.482;2023-05-01T07:07:32;10.40;99.90
57218;DHT22;43078;52.972;6.482;2023-05-01T07:09:58;10.40;99.90
57218;DHT22;43078;52.972;6.482;2023-05-01T07:12:23;10.50;99.90
57218;DHT22;43078;52.972;6.482;2023-05-01T07:14:49;10.50;99.90
57218;DHT22;43078;52.972;6.482;2023-05-01T07:17:14;10.60;99.90
57218;DHT22;43078;52.972;6.482;2023-05-01T07:19:40;10.60;99.90
57218;DHT22;43078;52.972;6.482;2023-05-01T07:22:05;10.70;99.90
57218;DHT22;43078;52.972;6.482;2023-05-01T07:24:31;10.70;99.90
57218;DHT22;43078;52.972;6.482;2023-05-01T07:26:57;10.80;99.90
57218;DHT22;43078;52.972;6.482;2023-05-01T07:29:22;10.80;99.90
57218;DHT22;43078;52.972;6.482;2023-05-01T07:31:48;10.90;99.90
57218;DHT22;43078;52.972;6.482;2023-05-01T07:34:13;11.00;99.90
57218;DHT22;43078;52.972;6.482;2023-05-01T07:36:40;11.00;99.90
57218;DHT22;43078;52.972;6.482;2023-05-01T07:39:06;11.10;99.90
57218;DHT22;43078;52.972;6.482;2023-05-01T07:41:31;11.20;99.90
57218;DHT22;43078;52.972;6.482;2023-05-01T07:43:58;11.30;99.90
57218;DHT22;43078;52.972;6.482;2023-05-01T07:46:24;11.40;99.90
57218;DHT22;43078;52.972;6.482;2023-05-01T07:48:49;11.40;99.90
57218;DHT22;43078;52.972;6.482;2023-05-01T07:51:15;11.50;99.90
57218;DHT22;43078;52.972;6.482;2023-05-01T07:53:42;11.60;99.90
57218;DHT22;43078;52.972;6.482;2023-05-01T07:56:09;11.70;99.90
57218;DHT22;43078;52.972;6.482;2023-05-01T07:58:35;11.80;99.90
57218;DHT22;43078;52.972;6.482;2023-05-01T08:01:02;11.80;99.90
57218;DHT22;43078;52.972;6.482;2023-05-01T08:03:28;11.90;99.90
57218;DHT22;43078;52.972;6.482;2023-05-01T08:05:55;11.90;99.90
57218;DHT22;43078;52.972;6.482;2023-05-01T08:08:20;12.00;99.50
57218;DHT22;43078;52.972;6.482;2023-05-01T08:10:46;12.10;99.20
57218;DHT22;43078;52.972;6.482;2023-05-01T08:13:12;12.10;98.00
57218;DHT22;43078;52.972;6.482;2023-05-01T08:15:38;12.30;98.00
57218;DHT22;43078;52.972;6.482;2023-05-01T08:18:09;12.40;98.60
57218;DHT22;43078;52.972;6.482;2023-05-01T08:20:35;12.40;99.00
57218;DHT22;43078;52.972;6.482;2023-05-01T08:23:01;12.50;99.30
57218;DHT22;43078;52.972;6.482;2023-05-01T08:25:27;12.60;98.90
57218;DHT22;43078;52.972;6.482;2023-05-01T08:27:54;12.70;99.30
57218;DHT22;43078;52.972;6.482;2023-05-01T08:30:19;12.70;98.80
57218;DHT22;43078;52.972;6.482;2023-05-01T08:32:45;12.80;98.00
57218;DHT22;43078;52.972;6.482;2023-05-01T08:35:11;12.90;96.80
57218;DHT22;43078;52.972;6.482;2023-05-01T08:37:36;13.00;97.10
57218;DHT22;43078;52.972;6.482;2023-05-01T08:40:03;13.10;97.20
57218;DHT22;43078;52.972;6.482;2023-05-01T08:42:36;13.20;96.40
57218;DHT22;43078;52.972;6.482;2023-05-01T08:45:06;13.30;95.40
57218;DHT22;43078;52.972;6.482;2023-05-01T08:47:35;13.30;96.60
57218;DHT22;43078;52.972;6.482;2023-05-01T08:50:03;13.40;96.20
57218;DHT22;43078;52.972;6.482;2023-05-01T08:52:29;13.60;95.90
57218;DHT22;43078;52.972;6.482;2023-05-01T08:54:56;13.60;94.60
57218;DHT22;43078;52.972;6.482;2023-05-01T08:57:25;13.70;94.10
57218;DHT22;43078;52.972;6.482;2023-05-01T08:59:52;13.80;96.50
57218;DHT22;43078;52.972;6.482;2023-05-01T09:02:22;13.90;98.30
57218;DHT22;43078;52.972;6.482;2023-05-01T09:04:50;14.00;98.40
57218;DHT22;43078;52.972;6.482;2023-05-01T09:07:15;14.10;96.50
57218;DHT22;43078;52.972;6.482;2023-05-01T09:09:42;14.20;95.10
57218;DHT22;43078;52.972;6.482;2023-05-01T09:12:22;14.30;95.10
57218;DHT22;43078;52.972;6.482;2023-05-01T09:14:53;14.40;95.60
57218;DHT22;43078;52.972;6.482;2023-05-01T09:17:21;14.50;94.30
57218;DHT22;43078;52.972;6.482;2023-05-01T09:19:48;14.60;92.40
57218;DHT22;43078;52.972;6.482;2023-05-01T09:22:14;14.70;91.80
57218;DHT22;43078;52.972;6.482;2023-05-01T09:24:42;14.80;92.70
57218;DHT22;43078;52.972;6.482;2023-05-01T09:27:12;14.90;92.40
57218;DHT22;43078;52.972;6.482;2023-05-01T09:29:38;15.00;91.80
57218;DHT22;43078;52.972;6.482;2023-05-01T09:32:23;15.10;93.00
57218;DHT22;43078;52.972;6.482;2023-05-01T09:35:11;15.20;92.70
57218;DHT22;43078;52.972;6.482;2023-05-01T09:37:38;15.30;91.30
57218;DHT22;43078;52.972;6.482;2023-05-01T09:42:38;15.50;91.50
57218;DHT22;43078;52.972;6.482;2023-05-01T09:45:15;15.60;90.50
57218;DHT22;43078;52.972;6.482;2023-05-01T09:47:42;15.70;89.20
57218;DHT22;43078;52.972;6.482;2023-05-01T09:50:30;15.80;87.80
57218;DHT22;43078;52.972;6.482;2023-05-01T09:52:56;15.90;87.00
57218;DHT22;43078;52.972;6.482;2023-05-01T09:55:22;16.00;85.80
57218;DHT22;43078;52.972;6.482;2023-05-01T09:57:49;16.20;86.60
57218;DHT22;43078;52.972;6.482;2023-05-01T10:00:15;16.20;83.60
57218;DHT22;43078;52.972;6.482;2023-05-01T10:02:43;16.30;89.20
57218;DHT22;43078;52.972;6.482;2023-05-01T10:05:10;16.40;85.20
57218;DHT22;43078;52.972;6.482;2023-05-01T10:07:36;16.40;83.50
57218;DHT22;43078;52.972;6.482;2023-05-01T10:10:18;16.40;83.00
57218;DHT22;43078;52.972;6.482;2023-05-01T10:12:44;16.50;89.10
57218;DHT22;43078;52.972;6.482;2023-05-01T10:15:10;16.60;90.20
57218;DHT22;43078;52.972;6.482;2023-05-01T10:17:37;16.60;87.70
57218;DHT22;43078;52.972;6.482;2023-05-01T10:20:05;16.60;83.40
57218;DHT22;43078;52.972;6.482;2023-05-01T10:22:32;16.70;83.20
57218;DHT22;43078;52.972;6.482;2023-05-01T10:24:58;16.80;84.90
57218;DHT22;43078;52.972;6.482;2023-05-01T10:27:25;16.90;89.90
57218;DHT22;43078;52.972;6.482;2023-05-01T10:29:54;17.00;90.60
57218;DHT22;43078;52.972;6.482;2023-05-01T10:32:20;17.10;92.10
57218;DHT22;43078;52.972;6.482;2023-05-01T10:34:56;17.10;88.80
57218;DHT22;43078;52.972;6.482;2023-05-01T10:37:28;17.20;90.10
57218;DHT22;43078;52.972;6.482;2023-05-01T10:39:56;17.30;86.90
57218;DHT22;43078;52.972;6.482;2023-05-01T10:42:22;17.30;87.40
57218;DHT22;43078;52.972;6.482;2023-05-01T10:44:47;17.40;87.60
57218;DHT22;43078;52.972;6.482;2023-05-01T10:50:04;17.50;84.70
57218;DHT22;43078;52.972;6.482;2023-05-01T10:55:39;17.70;83.90
57218;DHT22;43078;52.972;6.482;2023-05-01T10:58:07;17.70;83.60
57218;DHT22;43078;52.972;6.482;2023-05-01T11:00:32;17.80;81.20
57218;DHT22;43078;52.972;6.482;2023-05-01T11:08:36;18.00;83.40
57218;DHT22;43078;52.972;6.482;2023-05-01T11:14:02;18.20;75.70
57218;DHT22;43078;52.972;6.482;2023-05-01T11:21:45;18.30;82.20
57218;DHT22;43078;52.972;6.482;2023-05-01T11:24:11;18.40;85.40
57218;DHT22;43078;52.972;6.482;2023-05-01T11:26:41;18.40;82.70
57218;DHT22;43078;52.972;6.482;2023-05-01T11:29:08;18.50;78.60
57218;DHT22;43078;52.972;6.482;2023-05-01T11:31:38;18.50;80.30
57218;DHT22;43078;52.972;6.482;2023-05-01T11:34:04;18.60;83.00
57218;DHT22;43078;52.972;6.482;2023-05-01T11:36:50;18.70;82.40
57218;DHT22;43078;52.972;6.482;2023-05-01T11:39:16;18.70;78.40
57218;DHT22;43078;52.972;6.482;2023-05-01T11:41:42;18.80;81.90
57218;DHT22;43078;52.972;6.482;2023-05-01T11:44:10;18.80;77.90
57218;DHT22;43078;52.972;6.482;2023-05-01T11:46:36;18.90;86.00
57218;DHT22;43078;52.972;6.482;2023-05-01T11:49:02;18.80;76.40
57218;DHT22;43078;52.972;6.482;2023-05-01T11:51:28;18.80;85.10
57218;DHT22;43078;52.972;6.482;2023-05-01T11:54:08;18.80;78.30
57218;DHT22;43078;52.972;6.482;2023-05-01T11:56:35;18.80;81.20
57218;DHT22;43078;52.972;6.482;2023-05-01T11:59:12;18.90;84.40
57218;DHT22;43078;52.972;6.482;2023-05-01T12:01:41;18.90;83.60
57218;DHT22;43078;52.972;6.482;2023-05-01T12:04:09;19.00;81.60
57218;DHT22;43078;52.972;6.482;2023-05-01T12:06:42;19.00;86.10
57218;DHT22;43078;52.972;6.482;2023-05-01T12:09:10;19.10;87.00
57218;DHT22;43078;52.972;6.482;2023-05-01T12:11:40;19.20;82.00
57218;DHT22;43078;52.972;6.482;2023-05-01T12:14:06;19.20;86.10
57218;DHT22;43078;52.972;6.482;2023-05-01T12:16:34;19.20;84.10
57218;DHT22;43078;52.972;6.482;2023-05-01T12:19:00;19.30;88.10
57218;DHT22;43078;52.972;6.482;2023-05-01T12:21:26;19.30;89.00
57218;DHT22;43078;52.972;6.482;2023-05-01T12:23:52;19.40;91.70
57218;DHT22;43078;52.972;6.482;2023-05-01T12:26:22;19.50;92.50
57218;DHT22;43078;52.972;6.482;2023-05-01T12:29:00;19.60;91.20
57218;DHT22;43078;52.972;6.482;2023-05-01T12:31:26;19.60;89.40
57218;DHT22;43078;52.972;6.482;2023-05-01T12:33:53;19.70;90.80
57218;DHT22;43078;52.972;6.482;2023-05-01T12:36:21;19.70;82.80
57218;DHT22;43078;52.972;6.482;2023-05-01T12:41:51;19.60;73.70
57218;DHT22;43078;52.972;6.482;2023-05-01T12:44:20;19.60;77.10
57218;DHT22;43078;52.972;6.482;2023-05-01T12:47:02;19.60;77.40
57218;DHT22;43078;52.972;6.482;2023-05-01T12:49:29;19.60;79.70
57218;DHT22;43078;52.972;6.482;2023-05-01T12:51:56;19.60;87.00
57218;DHT22;43078;52.972;6.482;2023-05-01T12:54:30;19.70;83.20
57218;DHT22;43078;52.972;6.482;2023-05-01T12:57:12;19.60;86.30
57218;DHT22;43078;52.972;6.482;2023-05-01T12:59:44;19.60;82.00
57218;DHT22;43078;52.972;6.482;2023-05-01T13:02:14;19.60;82.80
57218;DHT22;43078;52.972;6.482;2023-05-01T13:04:43;19.60;79.40
57218;DHT22;43078;52.972;6.482;2023-05-01T13:07:16;19.60;80.90
57218;DHT22;43078;52.972;6.482;2023-05-01T13:09:56;19.60;75.10
57218;DHT22;43078;52.972;6.482;2023-05-01T13:12:23;19.70;85.70
57218;DHT22;43078;52.972;6.482;2023-05-01T13:14:49;19.70;83.30
57218;DHT22;43078;52.972;6.482;2023-05-01T13:17:31;19.80;86.90
57218;DHT22;43078;52.972;6.482;2023-05-01T13:20:02;19.80;85.80
57218;DHT22;43078;52.972;6.482;2023-05-01T13:22:36;19.90;87.60
57218;DHT22;43078;52.972;6.482;2023-05-01T13:25:16;19.90;89.50
57218;DHT22;43078;52.972;6.482;2023-05-01T13:27:51;19.90;86.30
57218;DHT22;43078;52.972;6.482;2023-05-01T13:30:29;19.90;82.40
57218;DHT22;43078;52.972;6.482;2023-05-01T13:32:55;19.90;80.10
57218;DHT22;43078;52.972;6.482;2023-05-01T13:35:22;19.90;85.10
57218;DHT22;43078;52.972;6.482;2023-05-01T13:37:49;20.00;90.20
57218;DHT22;43078;52.972;6.482;2023-05-01T13:40:15;20.10;91.40
57218;DHT22;43078;52.972;6.482;2023-05-01T13:42:43;20.20;92.60
57218;DHT22;43078;52.972;6.482;2023-05-01T13:45:09;20.20;88.60
57218;DHT22;43078;52.972;6.482;2023-05-01T13:47:38;20.30;88.70
57218;DHT22;43078;52.972;6.482;2023-05-01T13:50:08;20.20;81.70
57218;DHT22;43078;52.972;6.482;2023-05-01T13:52:40;20.20;80.20
57218;DHT22;43078;52.972;6.482;2023-05-01T13:55:08;20.20;84.80
57218;DHT22;43078;52.972;6.482;2023-05-01T13:57:36;20.10;88.70
57218;DHT22;43078;52.972;6.482;2023-05-01T14:00:02;20.10;84.60
57218;DHT22;43078;52.972;6.482;2023-05-01T14:02:29;20.20;90.70
57218;DHT22;43078;52.972;6.482;2023-05-01T14:04:55;20.20;88.80
57218;DHT22;43078;52.972;6.482;2023-05-01T14:07:22;20.20;90.40
57218;DHT22;43078;52.972;6.482;2023-05-01T14:09:56;20.30;91.10
57218;DHT22;43078;52.972;6.482;2023-05-01T14:12:29;20.30;92.20
57218;DHT22;43078;52.972;6.482;2023-05-01T14:14:56;20.30;91.40
57218;DHT22;43078;52.972;6.482;2023-05-01T14:17:28;20.30;91.30
57218;DHT22;43078;52.972;6.482;2023-05-01T14:19:54;20.20;91.40
57218;DHT22;43078;52.972;6.482;2023-05-01T14:22:20;20.10;90.10
57218;DHT22;43078;52.972;6.482;2023-05-01T14:24:46;20.10;90.90
57218;DHT22;43078;52.972;6.482;2023-05-01T14:27:13;20.00;85.40
57218;DHT22;43078;52.972;6.482;2023-05-01T14:29:41;20.00;87.40
57218;DHT22;43078;52.972;6.482;2023-05-01T14:32:10;19.90;83.10
57218;DHT22;43078;52.972;6.482;2023-05-01T14:34:40;19.80;90.90
57218;DHT22;43078;52.972;6.482;2023-05-01T14:37:06;19.70;88.30
57218;DHT22;43078;52.972;6.482;2023-05-01T14:39:33;19.70;92.50
57218;DHT22;43078;52.972;6.482;2023-05-01T14:41:58;19.70;91.70
57218;DHT22;43078;52.972;6.482;2023-05-01T14:44:26;19.70;89.80
57218;DHT22;43078;52.972;6.482;2023-05-01T14:46:55;19.70;86.20
57218;DHT22;43078;52.972;6.482;2023-05-01T14:49:22;19.60;90.40
57218;DHT22;43078;52.972;6.482;2023-05-01T14:51:49;19.60;91.00
57218;DHT22;43078;52.972;6.482;2023-05-01T14:54:16;19.60;85.90
57218;DHT22;43078;52.972;6.482;2023-05-01T14:56:42;19.60;87.60
57218;DHT22;43078;52.972;6.482;2023-05-01T14:59:08;19.60;89.50
57218;DHT22;43078;52.972;6.482;2023-05-01T15:01:34;19.60;90.00
57218;DHT22;43078;52.972;6.482;2023-05-01T15:03:59;19.60;91.00
57218;DHT22;43078;52.972;6.482;2023-05-01T15:06:25;19.70;92.40
57218;DHT22;43078;52.972;6.482;2023-05-01T15:08:51;19.70;90.20
57218;DHT22;43078;52.972;6.482;2023-05-01T15:11:17;19.70;91.20
57218;DHT22;43078;52.972;6.482;2023-05-01T15:13:46;19.70;92.70
57218;DHT22;43078;52.972;6.482;2023-05-01T15:16:15;19.70;90.30
57218;DHT22;43078;52.972;6.482;2023-05-01T15:18:40;19.80;91.20
57218;DHT22;43078;52.972;6.482;2023-05-01T15:21:06;19.80;90.10
57218;DHT22;43078;52.972;6.482;2023-05-01T15:23:32;19.80;91.10
57218;DHT22;43078;52.972;6.482;2023-05-01T15:25:57;19.80;92.60
57218;DHT22;43078;52.972;6.482;2023-05-01T15:28:23;19.90;91.80
57218;DHT22;43078;52.972;6.482;2023-05-01T15:30:51;19.90;90.30
57218;DHT22;43078;52.972;6.482;2023-05-01T15:33:18;19.90;89.50
57218;DHT22;43078;52.972;6.482;2023-05-01T15:35:47;19.90;88.70
57218;DHT22;43078;52.972;6.482;2023-05-01T15:38:13;20.00;91.00
57218;DHT22;43078;52.972;6.482;2023-05-01T15:40:41;20.00;91.50
57218;DHT22;43078;52.972;6.482;2023-05-01T15:43:07;20.10;92.50
57218;DHT22;43078;52.972;6.482;2023-05-01T15:45:32;20.10;94.70
57218;DHT22;43078;52.972;6.482;2023-05-01T15:47:58;20.10;91.90
57218;DHT22;43078;52.972;6.482;2023-05-01T15:50:24;20.10;93.60
57218;DHT22;43078;52.972;6.482;2023-05-01T15:52:50;20.00;93.30
57218;DHT22;43078;52.972;6.482;2023-05-01T15:55:17;20.10;94.60
57218;DHT22;43078;52.972;6.482;2023-05-01T15:57:46;20.00;93.90
57218;DHT22;43078;52.972;6.482;2023-05-01T16:00:13;20.00;93.40
57218;DHT22;43078;52.972;6.482;2023-05-01T16:02:40;20.10;92.80
57218;DHT22;43078;52.972;6.482;2023-05-01T16:05:07;20.10;90.50
57218;DHT22;43078;52.972;6.482;2023-05-01T16:07:33;20.00;89.70
57218;DHT22;43078;52.972;6.482;2023-05-01T16:09:58;20.00;91.10
57218;DHT22;43078;52.972;6.482;2023-05-01T16:12:26;20.00;91.40
57218;DHT22;43078;52.972;6.482;2023-05-01T16:14:52;20.00;89.10
57218;DHT22;43078;52.972;6.482;2023-05-01T16:17:18;20.00;91.50
57218;DHT22;43078;52.972;6.482;2023-05-01T16:19:45;20.00;90.70
57218;DHT22;43078;52.972;6.482;2023-05-01T16:22:11;20.00;94.50